createdAt,value
2018-04-29T00:00:33.334Z,10.20
2018-04-29T00:02:59.287Z,10.00
2018-04-29T00:05:25.999Z,9.90
2018-04-29T00:07:51.994Z,9.90
2018-04-29T00:10:18.069Z,10.00
2018-04-29T00:12:44.059Z,10.00
2018-04-29T00:15:10.346Z,10.00
2018-04-29T00:17:36.298Z,10.10
2018-04-29T00:20:02.271Z,10.00
2018-04-29T00:22:28.246Z,10.10
2018-04-29T00:24:54.233Z,10.20
2018-04-29T00:27:20.987Z,10.10
2018-04-29T00:29:47.700Z,9.90
2018-04-29T00:32:13.659Z,9.90
2018-04-29T00:34:39.618Z,9.80
2018-04-29T00:37:05.605Z,9.70
2018-04-29T00:39:31.561Z,9.60
2018-04-29T00:41:57.518Z,9.60
2018-04-29T00:44:24.265Z,9.60
2018-04-29T00:46:50.986Z,9.60
2018-04-29T00:49:17.075Z,9.70
2018-04-29T00:51:55.423Z,9.70
2018-04-29T00:54:21.441Z,9.80
2018-04-29T00:56:47.433Z,9.80
2018-04-29T00:59:14.142Z,9.60
2018-04-29T01:01:40.099Z,9.60
2018-04-29T01:04:06.068Z,9.50
2018-04-29T01:06:32.750Z,9.50
2018-04-29T01:08:59.035Z,9.50
2018-04-29T01:11:24.986Z,9.40
2018-04-29T01:13:50.954Z,9.40
2018-04-29T01:16:16.958Z,9.30
2018-04-29T01:18:43.666Z,9.30
2018-04-29T01:21:09.629Z,9.30
2018-04-29T01:23:35.581Z,9.30
2018-04-29T01:26:01.589Z,9.30
2018-04-29T01:28:27.560Z,9.30
2018-04-29T01:30:54.286Z,9.20
2018-04-29T01:33:20.286Z,9.20
2018-04-29T01:35:46.256Z,9.20
2018-04-29T01:38:12.226Z,9.10
2018-04-29T01:40:38.923Z,8.90
2018-04-29T01:43:04.891Z,8.90
2018-04-29T01:45:30.851Z,8.90
2018-04-29T01:47:57.578Z,8.90
2018-04-29T01:50:23.538Z,8.90
2018-04-29T01:52:50.260Z,8.90
2018-04-29T01:55:16.229Z,8.90
2018-04-29T01:57:42.926Z,8.90
2018-04-29T02:00:08.895Z,8.90
2018-04-29T02:02:34.851Z,8.80
2018-04-29T02:05:01.554Z,8.70
2018-04-29T02:07:27.503Z,8.70
2018-04-29T02:09:53.485Z,8.70
2018-04-29T02:12:19.509Z,8.60
2018-04-29T02:14:46.247Z,8.80
2018-04-29T02:17:12.957Z,8.90
2018-04-29T02:19:38.907Z,8.90
2018-04-29T02:22:04.870Z,8.90
2018-04-29T02:24:30.818Z,8.90
2018-04-29T02:26:57.525Z,8.80
2018-04-29T02:29:23.522Z,8.70
2018-04-29T02:31:49.486Z,8.70
2018-04-29T02:34:15.456Z,8.60
2018-04-29T02:36:41.416Z,8.60
2018-04-29T02:39:08.131Z,8.60
2018-04-29T02:41:34.083Z,8.60
2018-04-29T02:44:00.147Z,8.60
2018-04-29T02:46:26.846Z,8.50
2018-04-29T02:48:52.812Z,8.50
2018-04-29T02:51:18.806Z,8.50
2018-04-29T02:53:44.775Z,8.40
2018-04-29T02:56:10.738Z,8.40
2018-04-29T02:58:36.692Z,8.50
2018-04-29T03:01:02.678Z,8.50
2018-04-29T03:03:30.115Z,8.50
2018-04-29T03:05:56.090Z,8.50
2018-04-29T03:08:22.139Z,8.60
2018-04-29T03:10:48.941Z,8.50
2018-04-29T03:13:14.919Z,8.50
2018-04-29T03:15:41.610Z,8.40
2018-04-29T03:18:07.985Z,8.40
2018-04-29T03:20:34.311Z,8.40
2018-04-29T03:23:00.263Z,8.40
2018-04-29T03:25:26.257Z,8.30
2018-04-29T03:27:52.239Z,8.30
2018-04-29T03:30:18.230Z,8.30
2018-04-29T03:32:44.191Z,8.30
2018-04-29T03:35:10.161Z,8.40
2018-04-29T03:37:36.122Z,8.60
2018-04-29T03:40:02.826Z,8.70
2018-04-29T03:42:28.794Z,8.70
2018-04-29T03:44:54.750Z,8.70
2018-04-29T03:47:20.746Z,8.70
2018-04-29T03:49:46.768Z,8.70
2018-04-29T03:52:12.728Z,8.60
2018-04-29T03:54:40.171Z,8.40
2018-04-29T03:57:18.573Z,8.40
2018-04-29T03:59:56.966Z,8.50
2018-04-29T04:02:36.254Z,8.50
2018-04-29T04:05:02.170Z,8.50
2018-04-29T04:07:28.129Z,8.50
2018-04-29T04:09:54.099Z,8.50
2018-04-29T04:12:20.117Z,8.40
2018-04-29T04:14:46.077Z,8.50
2018-04-29T04:17:12.774Z,8.50
2018-04-29T04:19:38.725Z,8.50
2018-04-29T04:22:04.700Z,8.60
2018-04-29T04:24:30.659Z,8.70
2018-04-29T04:26:57.360Z,8.80
2018-04-29T04:29:23.305Z,8.80
2018-04-29T04:31:49.299Z,9.00
2018-04-29T04:34:15.637Z,9.20
2018-04-29T04:36:41.509Z,9.40
2018-04-29T04:39:22.444Z,9.70
2018-04-29T04:41:49.174Z,10.30
2018-04-29T04:44:15.137Z,10.30
2018-04-29T04:46:41.098Z,10.50
2018-04-29T04:49:07.574Z,10.30
2018-04-29T04:51:33.535Z,10.40
2018-04-29T04:54:00.389Z,10.70
2018-04-29T04:56:26.375Z,10.70
2018-04-29T04:58:52.365Z,11.00
2018-04-29T05:01:19.087Z,11.40
2018-04-29T05:03:45.038Z,11.40
2018-04-29T05:06:11.008Z,11.70
2018-04-29T05:08:36.970Z,12.50
2018-04-29T05:11:02.952Z,13.10
2018-04-29T05:13:29.670Z,16.20
2018-04-29T05:15:55.663Z,16.20
2018-04-29T05:18:21.646Z,17.20
2018-04-29T05:20:47.851Z,17.10
2018-04-29T05:23:13.830Z,16.70
2018-04-29T05:25:40.150Z,16.70
2018-04-29T05:28:06.131Z,15.50
2018-04-29T05:30:32.835Z,14.30
2018-04-29T05:32:58.804Z,14.30
2018-04-29T05:35:24.779Z,13.80
2018-04-29T05:37:51.573Z,13.10
2018-04-29T05:40:17.571Z,13.00
2018-04-29T05:42:43.534Z,13.10
2018-04-29T05:45:09.493Z,12.80
2018-04-29T05:47:35.442Z,12.90
2018-04-29T05:50:01.533Z,11.80
2018-04-29T05:52:27.498Z,11.10
2018-04-29T05:54:53.533Z,10.70
2018-04-29T05:57:19.520Z,10.40
2018-04-29T05:59:45.479Z,10.40
2018-04-29T06:02:11.454Z,10.50
2018-04-29T06:04:37.412Z,10.80
2018-04-29T06:07:04.123Z,11.20
2018-04-29T06:09:30.086Z,11.20
2018-04-29T06:11:56.047Z,11.20
2018-04-29T06:14:22.078Z,11.30
2018-04-29T06:16:48.063Z,11.50
2018-04-29T06:19:14.834Z,11.60
2018-04-29T06:21:40.790Z,11.80
2018-04-29T06:24:07.500Z,12.20
2018-04-29T06:26:33.441Z,12.30
2018-04-29T06:28:59.396Z,12.70
2018-04-29T06:31:25.371Z,13.40
2018-04-29T06:33:51.393Z,14.70
2018-04-29T06:36:17.396Z,19.10
2018-04-29T06:38:43.367Z,22.30
2018-04-29T06:41:10.117Z,24.20
2018-04-29T06:43:36.806Z,22.40
2018-04-29T06:46:02.782Z,22.30
2018-04-29T06:48:28.743Z,22.30
2018-04-29T06:50:54.707Z,20.50
2018-04-29T06:53:20.716Z,19.50
2018-04-29T06:55:46.747Z,18.40
2018-04-29T06:58:13.450Z,20.40
2018-04-29T07:00:39.410Z,20.40
2018-04-29T07:03:05.740Z,24.30
2018-04-29T07:05:32.704Z,24.70
2018-04-29T07:07:58.674Z,24.60
2018-04-29T07:10:24.642Z,24.20
2018-04-29T07:12:50.617Z,23.70
2018-04-29T07:15:17.359Z,20.20
2018-04-29T07:17:43.314Z,20.20
2018-04-29T07:20:10.038Z,17.90
2018-04-29T07:22:35.990Z,17.80
2018-04-29T07:25:01.967Z,16.90
2018-04-29T07:27:27.918Z,16.70
2018-04-29T07:29:53.879Z,15.60
2018-04-29T07:32:19.893Z,15.50
2018-04-29T07:34:45.882Z,15.30
2018-04-29T07:37:12.577Z,15.10
2018-04-29T07:39:38.531Z,15.10
2018-04-29T07:42:04.503Z,15.10
2018-04-29T07:44:31.201Z,15.20
2018-04-29T07:46:57.173Z,15.20
2018-04-29T07:49:23.140Z,15.40
2018-04-29T07:51:49.886Z,16.20
2018-04-29T07:54:16.642Z,19.40
2018-04-29T07:56:43.343Z,20.40
2018-04-29T07:59:09.302Z,20.40
2018-04-29T08:01:35.282Z,20.40
2018-04-29T08:04:02.266Z,20.10
2018-04-29T08:06:28.229Z,19.40
2018-04-29T08:08:54.178Z,18.60
2018-04-29T08:11:20.413Z,17.80
2018-04-29T08:13:46.369Z,17.20
2018-04-29T08:16:12.335Z,16.80
2018-04-29T08:18:38.304Z,16.60
2018-04-29T08:21:04.280Z,16.50
2018-04-29T08:23:30.233Z,16.30
2018-04-29T08:25:56.201Z,15.50
2018-04-29T08:28:22.191Z,15.40
2018-04-29T08:30:48.211Z,15.10
2018-04-29T08:33:14.922Z,14.80
2018-04-29T08:35:40.878Z,14.60
2018-04-29T08:38:07.725Z,14.80
2018-04-29T08:40:33.699Z,14.70
2018-04-29T08:42:59.669Z,14.70
2018-04-29T08:45:25.654Z,14.60
2018-04-29T08:47:52.432Z,14.00
2018-04-29T08:50:18.442Z,14.00
2018-04-29T08:52:44.387Z,14.30
2018-04-29T08:55:11.096Z,17.30
2018-04-29T08:57:37.059Z,17.20
2018-04-29T09:00:03.031Z,17.70
2018-04-29T09:02:28.993Z,18.60
2018-04-29T09:04:55.047Z,19.50
2018-04-29T09:07:21.091Z,19.50
2018-04-29T09:09:47.065Z,19.60
2018-04-29T09:12:13.049Z,19.70
2018-04-29T09:14:39.003Z,19.30
2018-04-29T09:17:04.973Z,19.50
2018-04-29T09:19:30.929Z,19.60
2018-04-29T09:21:56.965Z,19.40
2018-04-29T09:24:22.970Z,18.70
2018-04-29T09:26:49.714Z,18.90
2018-04-29T09:29:15.690Z,18.80
2018-04-29T09:31:41.655Z,19.30
2018-04-29T09:34:07.627Z,19.70
2018-04-29T09:36:34.323Z,19.70
2018-04-29T09:39:00.294Z,19.60
2018-04-29T09:41:26.272Z,19.70
2018-04-29T09:43:52.264Z,19.70
2018-04-29T09:46:18.366Z,19.10
2018-04-29T09:48:44.350Z,19.10
2018-04-29T09:51:10.294Z,19.10
2018-04-29T09:53:36.982Z,18.90
2018-04-29T09:56:02.970Z,18.90
2018-04-29T09:58:29.662Z,19.30
2018-04-29T10:00:56.656Z,19.20
2018-04-29T10:03:22.668Z,19.10
2018-04-29T10:05:48.684Z,19.30
2018-04-29T10:08:14.939Z,19.40
2018-04-29T10:10:40.911Z,19.30
2018-04-29T10:13:07.614Z,19.30
2018-04-29T10:15:33.607Z,19.20
2018-04-29T10:17:59.571Z,19.30
2018-04-29T10:20:25.574Z,19.40
2018-04-29T10:22:52.891Z,19.30
2018-04-29T10:25:18.893Z,19.40
2018-04-29T10:27:45.606Z,19.20
2018-04-29T10:30:11.566Z,19.20
2018-04-29T10:32:37.538Z,19.00
2018-04-29T10:35:03.523Z,18.70
2018-04-29T10:37:29.491Z,18.50
2018-04-29T10:39:56.438Z,18.90
2018-04-29T10:42:22.479Z,18.90
2018-04-29T10:44:49.653Z,19.60
2018-04-29T10:47:15.666Z,19.60
2018-04-29T10:49:41.623Z,19.30
2018-04-29T10:52:08.330Z,19.10
2018-04-29T10:54:34.318Z,19.10
2018-04-29T10:57:00.800Z,19.20
2018-04-29T10:59:28.297Z,19.40
2018-04-29T11:01:54.368Z,19.40
2018-04-29T11:04:21.193Z,19.70
2018-04-29T11:06:47.243Z,19.70
2018-04-29T11:09:13.945Z,19.90
2018-04-29T11:11:39.973Z,19.90
2018-04-29T11:14:05.881Z,19.90
2018-04-29T11:16:32.613Z,19.80
2018-04-29T11:18:58.567Z,19.80
2018-04-29T11:21:25.294Z,19.90
2018-04-29T11:23:52.148Z,19.90
2018-04-29T11:26:18.978Z,19.70
2018-04-29T11:28:44.961Z,19.70
2018-04-29T11:31:11.668Z,19.40
2018-04-29T11:33:37.650Z,19.40
2018-04-29T11:36:04.361Z,19.30
2018-04-29T11:38:30.339Z,19.30
2018-04-29T11:40:57.058Z,19.70
2018-04-29T11:43:23.062Z,19.70
2018-04-29T11:45:49.099Z,19.70
2018-04-29T11:48:15.771Z,19.80
2018-04-29T11:50:41.743Z,19.80
2018-04-29T11:53:08.443Z,19.90
2018-04-29T11:55:34.434Z,19.80
2018-04-29T11:58:01.443Z,19.90
2018-04-29T12:00:27.801Z,19.90
2018-04-29T12:02:53.797Z,20.00
2018-04-29T12:05:19.786Z,19.90
2018-04-29T12:07:45.757Z,20.00
2018-04-29T12:10:11.722Z,20.20
2018-04-29T12:12:37.965Z,20.30
2018-04-29T12:15:03.943Z,20.40
2018-04-29T12:17:30.057Z,20.60
2018-04-29T12:19:56.033Z,20.70
2018-04-29T12:22:22.814Z,20.80
2018-04-29T12:24:48.841Z,20.80
2018-04-29T12:27:14.815Z,21.00
2018-04-29T12:29:40.787Z,21.10
2018-04-29T12:32:07.541Z,20.80
2018-04-29T12:34:34.248Z,20.90
2018-04-29T12:37:00.208Z,20.90
2018-04-29T12:39:26.198Z,20.90
2018-04-29T12:41:52.677Z,20.80
2018-04-29T12:44:18.689Z,20.90
2018-04-29T12:46:44.774Z,20.80
2018-04-29T12:49:10.683Z,20.70
2018-04-29T12:51:36.658Z,20.80
2018-04-29T12:54:03.426Z,21.00
2018-04-29T12:56:29.400Z,20.90
2018-04-29T12:58:55.442Z,21.10
2018-04-29T13:01:21.463Z,21.00
2018-04-29T13:03:47.521Z,20.80
2018-04-29T13:06:13.485Z,20.80
2018-04-29T13:08:40.230Z,21.10
2018-04-29T13:11:06.224Z,21.10
2018-04-29T13:13:32.198Z,21.00
2018-04-29T13:15:58.170Z,21.00
2018-04-29T13:18:24.170Z,21.00
2018-04-29T13:20:50.181Z,21.00
2018-04-29T13:23:16.134Z,21.00
2018-04-29T13:25:42.271Z,21.00
2018-04-29T13:28:09.278Z,21.10
2018-04-29T13:30:35.309Z,21.00
2018-04-29T13:33:01.306Z,21.20
2018-04-29T13:35:27.294Z,21.20
2018-04-29T13:37:53.312Z,21.20
2018-04-29T13:40:20.047Z,21.40
2018-04-29T13:42:47.259Z,21.50
2018-04-29T13:45:13.217Z,21.50
2018-04-29T13:47:39.174Z,21.50
2018-04-29T13:50:05.142Z,21.50
2018-04-29T13:52:31.097Z,21.40
2018-04-29T13:54:57.406Z,21.50
2018-04-29T13:57:24.110Z,21.70
2018-04-29T13:59:50.220Z,21.60
2018-04-29T14:02:16.191Z,21.70
2018-04-29T14:04:42.155Z,21.70
2018-04-29T14:07:08.964Z,21.80
2018-04-29T14:09:35.642Z,21.80
2018-04-29T14:12:01.659Z,21.80
2018-04-29T14:14:27.650Z,21.80
2018-04-29T14:16:53.638Z,21.80
2018-04-29T14:19:19.649Z,21.80
2018-04-29T14:21:45.889Z,21.90
2018-04-29T14:24:11.866Z,21.90
2018-04-29T14:26:37.826Z,22.00
2018-04-29T14:29:04.539Z,22.10
2018-04-29T14:31:30.499Z,22.10
2018-04-29T14:33:57.218Z,22.10
2018-04-29T14:36:23.280Z,22.10
2018-04-29T14:38:49.303Z,22.20
2018-04-29T14:41:15.265Z,22.20
2018-04-29T14:43:41.966Z,22.40
2018-04-29T14:46:07.962Z,22.40
2018-04-29T14:48:34.674Z,22.30
2018-04-29T14:51:00.617Z,22.30
2018-04-29T14:53:28.065Z,22.30
2018-04-29T14:55:54.120Z,22.40
2018-04-29T14:58:20.808Z,22.40
2018-04-29T15:00:47.593Z,22.50
2018-04-29T15:03:13.554Z,22.50
2018-04-29T15:05:39.510Z,22.60
2018-04-29T15:08:05.725Z,22.60
2018-04-29T15:10:31.761Z,22.60
2018-04-29T15:12:57.714Z,22.60
2018-04-29T15:15:23.732Z,22.60
2018-04-29T15:17:49.757Z,22.60
2018-04-29T15:20:15.753Z,22.90
2018-04-29T15:22:42.454Z,23.10
2018-04-29T15:25:08.436Z,23.00
2018-04-29T15:27:35.139Z,23.10
2018-04-29T15:30:01.119Z,23.00
2018-04-29T15:32:27.820Z,23.10
2018-04-29T15:34:53.806Z,23.10
2018-04-29T15:37:19.783Z,23.30
2018-04-29T15:39:45.735Z,23.40
2018-04-29T15:42:11.706Z,23.40
2018-04-29T15:44:37.678Z,23.50
2018-04-29T15:47:03.798Z,23.70
2018-04-29T15:49:29.800Z,23.70
2018-04-29T15:51:55.782Z,23.70
2018-04-29T15:54:21.817Z,23.80
2018-04-29T15:56:48.082Z,23.80
2018-04-29T15:59:14.588Z,23.90
2018-04-29T16:01:41.298Z,23.80
2018-04-29T16:04:07.259Z,23.80
2018-04-29T16:06:33.662Z,23.70
2018-04-29T16:08:59.630Z,23.60
2018-04-29T16:11:25.603Z,23.50
2018-04-29T16:13:51.773Z,23.40
2018-04-29T16:16:17.821Z,23.30
2018-04-29T16:18:43.787Z,23.30
2018-04-29T16:21:11.460Z,23.10
2018-04-29T16:23:37.468Z,23.10
2018-04-29T16:26:03.434Z,23.10
2018-04-29T16:28:29.431Z,23.10
2018-04-29T16:31:02.345Z,23.10
2018-04-29T16:33:28.310Z,23.10
2018-04-29T16:35:54.307Z,23.10
2018-04-29T16:38:20.401Z,23.00
2018-04-29T16:40:46.290Z,23.00
2018-04-29T16:43:12.263Z,22.90
2018-04-29T16:45:38.960Z,22.90
2018-04-29T16:48:04.926Z,22.80
2018-04-29T16:50:30.903Z,22.80
2018-04-29T16:52:56.883Z,22.70
2018-04-29T16:55:22.909Z,22.80
2018-04-29T16:57:48.952Z,22.70
2018-04-29T17:00:14.901Z,22.80
2018-04-29T17:02:40.850Z,22.90
2018-04-29T17:05:07.563Z,23.00
2018-04-29T17:07:33.655Z,22.90
2018-04-29T17:10:00.358Z,23.00
2018-04-29T17:12:26.341Z,23.10
2018-04-29T17:14:53.249Z,23.00
2018-04-29T17:17:19.330Z,22.90
2018-04-29T17:19:46.069Z,22.90
2018-04-29T17:22:12.020Z,22.90
2018-04-29T17:24:38.714Z,22.70
2018-04-29T17:27:04.882Z,22.70
2018-04-29T17:29:30.837Z,22.50
2018-04-29T17:31:57.526Z,22.20
2018-04-29T17:34:23.614Z,22.20
2018-04-29T17:36:50.286Z,22.00
2018-04-29T17:39:17.087Z,21.90
2018-04-29T17:41:43.101Z,21.90
2018-04-29T17:44:09.142Z,21.70
2018-04-29T17:46:35.014Z,21.60
2018-04-29T17:49:01.666Z,21.30
2018-04-29T17:51:27.623Z,21.20
2018-04-29T17:53:53.594Z,21.20
2018-04-29T17:56:19.754Z,21.00
2018-04-29T17:58:45.720Z,21.00
2018-04-29T18:01:11.686Z,20.90
2018-04-29T18:03:38.427Z,20.80
2018-04-29T18:06:04.394Z,20.80
2018-04-29T18:08:30.358Z,20.70
2018-04-29T18:10:56.375Z,20.80
2018-04-29T18:13:22.444Z,20.70
2018-04-29T18:15:48.460Z,20.70
2018-04-29T18:18:14.448Z,20.70
2018-04-29T18:20:41.141Z,20.50
2018-04-29T18:23:07.111Z,20.60
2018-04-29T18:25:33.707Z,20.50
2018-04-29T18:27:59.657Z,20.50
2018-04-29T18:30:25.763Z,20.50
2018-04-29T18:32:52.532Z,20.40
2018-04-29T18:35:18.538Z,20.50
2018-04-29T18:37:45.273Z,20.40
2018-04-29T18:40:11.282Z,20.40
2018-04-29T18:42:37.239Z,20.40
2018-04-29T18:45:03.210Z,20.40
2018-04-29T18:47:29.982Z,20.50
2018-04-29T18:49:55.950Z,20.50
2018-04-29T18:52:21.959Z,20.50
2018-04-29T18:54:48.018Z,20.50
2018-04-29T18:57:13.970Z,20.50
2018-04-29T18:59:39.933Z,20.50
2018-04-29T19:02:05.983Z,20.60
2018-04-29T19:04:32.687Z,20.60
2018-04-29T19:06:58.642Z,20.60
2018-04-29T19:09:24.680Z,20.60
2018-04-29T19:11:52.256Z,20.60
2018-04-29T19:14:18.236Z,20.60
2018-04-29T19:16:44.233Z,20.60
2018-04-29T19:19:10.190Z,20.70
2018-04-29T19:21:36.898Z,20.70
2018-04-29T19:24:03.017Z,20.60
2018-04-29T19:26:28.973Z,20.70
2018-04-29T19:28:54.941Z,20.70
2018-04-29T19:31:21.427Z,20.80
2018-04-29T19:33:47.428Z,20.80
2018-04-29T19:36:13.610Z,20.80
2018-04-29T19:38:39.849Z,20.80
2018-04-29T19:41:06.086Z,20.80
2018-04-29T19:43:32.053Z,20.80
2018-04-29T19:45:58.052Z,20.80
2018-04-29T19:48:24.045Z,20.80
2018-04-29T19:50:50.071Z,20.80
2018-04-29T19:53:16.175Z,20.80
2018-04-29T19:55:42.139Z,20.80
2018-04-29T19:58:08.094Z,20.80
2018-04-29T20:00:34.111Z,20.80
2018-04-29T20:03:00.067Z,20.60
2018-04-29T20:05:26.774Z,20.60
2018-04-29T20:07:52.771Z,20.60
2018-04-29T20:10:19.556Z,20.40
2018-04-29T20:12:45.523Z,20.40
2018-04-29T20:15:11.469Z,20.50
2018-04-29T20:17:37.417Z,20.60
2018-04-29T20:20:04.118Z,20.60
2018-04-29T20:22:30.129Z,20.50
2018-04-29T20:24:56.081Z,20.60
2018-04-29T20:27:22.085Z,20.70
2018-04-29T20:29:49.145Z,20.70
2018-04-29T20:32:26.491Z,20.70
2018-04-29T20:34:52.659Z,20.80
2018-04-29T20:37:18.770Z,20.80
2018-04-29T20:39:44.738Z,20.80
2018-04-29T20:42:10.729Z,20.70
2018-04-29T20:44:36.716Z,20.80
2018-04-29T20:47:02.673Z,20.90
2018-04-29T20:49:28.651Z,21.00
2018-04-29T20:51:54.638Z,21.00
2018-04-29T20:54:21.394Z,21.00
2018-04-29T20:56:48.199Z,20.90
2018-04-29T20:59:14.183Z,20.90
2018-04-29T21:01:40.889Z,20.80
2018-04-29T21:04:06.891Z,20.80
2018-04-29T21:06:32.853Z,20.70
2018-04-29T21:08:58.818Z,20.70
2018-04-29T21:11:26.066Z,20.60
2018-04-29T21:13:52.071Z,20.60
2018-04-29T21:16:18.064Z,20.50
2018-04-29T21:18:44.770Z,20.60
2018-04-29T21:21:10.998Z,20.60
2018-04-29T21:23:36.959Z,20.60
2018-04-29T21:26:03.097Z,20.60
2018-04-29T21:28:29.314Z,20.60
2018-04-29T21:30:55.290Z,20.60
2018-04-29T21:33:21.353Z,20.50
2018-04-29T21:35:48.107Z,20.60
2018-04-29T21:38:15.110Z,20.50
2018-04-29T21:40:41.084Z,20.50
2018-04-29T21:43:07.035Z,20.50
2018-04-29T21:45:32.999Z,20.60
2018-04-29T21:47:58.989Z,20.60
2018-04-29T21:50:24.948Z,20.70
2018-04-29T21:52:51.695Z,20.70
2018-04-29T21:55:18.422Z,20.60
2018-04-29T21:57:44.382Z,20.60
2018-04-29T22:00:11.087Z,20.60
2018-04-29T22:02:37.084Z,20.60
2018-04-29T22:05:03.072Z,20.60
2018-04-29T22:07:29.025Z,20.70
2018-04-29T22:09:54.999Z,20.70
2018-04-29T22:12:21.033Z,20.70
2018-04-29T22:14:46.998Z,20.60
2018-04-29T22:17:12.976Z,20.50
2018-04-29T22:19:39.702Z,20.50
2018-04-29T22:22:05.675Z,20.40
2018-04-29T22:24:32.419Z,20.40
2018-04-29T22:26:59.112Z,20.30
2018-04-29T22:29:25.071Z,20.30
2018-04-29T22:31:51.219Z,20.10
2018-04-29T22:34:17.173Z,20.10
2018-04-29T22:36:43.132Z,19.90
2018-04-29T22:39:09.106Z,19.90
2018-04-29T22:41:35.054Z,19.70
2018-04-29T22:44:01.005Z,19.70
2018-04-29T22:46:26.985Z,19.70
2018-04-29T22:48:52.993Z,19.80
2018-04-29T22:51:19.703Z,19.70
2018-04-29T22:53:45.846Z,19.70
2018-04-29T22:56:11.810Z,19.90
2018-04-29T22:58:37.753Z,19.80
2018-04-29T23:01:04.467Z,19.70
2018-04-29T23:03:30.422Z,19.70
2018-04-29T23:05:56.392Z,19.80
2018-04-29T23:08:22.412Z,19.50
2018-04-29T23:10:49.904Z,19.30
2018-04-29T23:13:15.867Z,19.20
2018-04-29T23:15:41.849Z,19.30
2018-04-29T23:18:08.858Z,19.00
2018-04-29T23:20:34.823Z,19.00
2018-04-29T23:23:01.671Z,18.90
2018-04-29T23:25:27.648Z,18.90
2018-04-29T23:27:54.351Z,18.60
2018-04-29T23:30:20.418Z,18.60
2018-04-29T23:32:46.399Z,18.70
2018-04-29T23:35:12.366Z,18.70
2018-04-29T23:37:38.359Z,18.60
2018-04-29T23:40:04.318Z,18.60
2018-04-29T23:42:30.283Z,18.60
2018-04-29T23:44:56.298Z,18.60
2018-04-29T23:47:22.278Z,18.80
2018-04-29T23:49:49.016Z,18.60
2018-04-29T23:52:15.019Z,18.60
2018-04-29T23:54:40.976Z,18.60
2018-04-29T23:57:06.938Z,18.50
2018-04-29T23:59:33.647Z,18.30
